sensor_id;sensor_type;location;lat;lon;timestamp;P1;durP1;ratioP1;P2;durP2;ratioP2
12469;SDS011;36499;46.484;13.832;2024-03-08T00:02:18;2.23;;;2.03;;
12469;SDS011;36499;46.484;13.832;2024-03-08T00:04:45;2.13;;;1.90;;
12469;SDS011;36499;46.484;13.832;2024-03-08T00:07:12;2.87;;;1.90;;
12469;SDS011;36499;46.484;13.832;2024-03-08T00:09:39;2.50;;;2.10;;
12469;SDS011;36499;46.484;13.832;2024-03-08T00:12:08;2.07;;;1.73;;
12469;SDS011;36499;46.484;13.832;2024-03-08T00:14:35;1.90;;;1.70;;
12469;SDS011;36499;46.484;13.832;2024-03-08T00:17:03;1.83;;;1.60;;
12469;SDS011;36499;46.484;13.832;2024-03-08T00:19:30;2.07;;;1.87;;
12469;SDS011;36499;46.484;13.832;2024-03-08T00:21:57;2.07;;;1.87;;
12469;SDS011;36499;46.484;13.832;2024-03-08T00:24:24;1.70;;;1.60;;
12469;SDS011;36499;46.484;13.832;2024-03-08T00:26:51;2.30;;;2.00;;
12469;SDS011;36499;46.484;13.832;2024-03-08T00:29:20;1.87;;;1.67;;
12469;SDS011;36499;46.484;13.832;2024-03-08T00:31:47;2.63;;;2.00;;
12469;SDS011;36499;46.484;13.832;2024-03-08T00:34:14;2.03;;;1.77;;
12469;SDS011;36499;46.484;13.832;2024-03-08T00:36:41;1.70;;;1.60;;
12469;SDS011;36499;46.484;13.832;2024-03-08T00:39:09;2.27;;;1.60;;
12469;SDS011;36499;46.484;13.832;2024-03-08T00:41:37;2.37;;;1.90;;
12469;SDS011;36499;46.484;13.832;2024-03-08T00:44:04;2.10;;;1.73;;
12469;SDS011;36499;46.484;13.832;2024-03-08T00:46:32;1.90;;;1.70;;
12469;SDS011;36499;46.484;13.832;2024-03-08T00:48:59;2.03;;;1.83;;
12469;SDS011;36499;46.484;13.832;2024-03-08T00:51:26;1.67;;;1.57;;
12469;SDS011;36499;46.484;13.832;2024-03-08T00:53:53;1.40;;;1.30;;
12469;SDS011;36499;46.484;13.832;2024-03-08T00:56:20;1.93;;;1.73;;
12469;SDS011;36499;46.484;13.832;2024-03-08T00:58:46;2.93;;;2.07;;
12469;SDS011;36499;46.484;13.832;2024-03-08T01:01:13;2.33;;;1.90;;
12469;SDS011;36499;46.484;13.832;2024-03-08T01:03:43;1.50;;;1.40;;
12469;SDS011;36499;46.484;13.832;2024-03-08T01:06:10;1.50;;;1.40;;
12469;SDS011;36499;46.484;13.832;2024-03-08T01:08:37;1.40;;;1.23;;
12469;SDS011;36499;46.484;13.832;2024-03-08T01:11:07;1.50;;;1.40;;
12469;SDS011;36499;46.484;13.832;2024-03-08T01:13:34;1.47;;;1.23;;
12469;SDS011;36499;46.484;13.832;2024-03-08T01:16:01;1.47;;;1.20;;
12469;SDS011;36499;46.484;13.832;2024-03-08T01:18:28;1.50;;;1.40;;
12469;SDS011;36499;46.484;13.832;2024-03-08T01:20:57;1.37;;;1.27;;
12469;SDS011;36499;46.484;13.832;2024-03-08T01:23:24;1.20;;;1.07;;
12469;SDS011;36499;46.484;13.832;2024-03-08T01:25:50;1.20;;;1.10;;
12469;SDS011;36499;46.484;13.832;2024-03-08T01:28:22;1.33;;;1.23;;
12469;SDS011;36499;46.484;13.832;2024-03-08T01:30:49;1.27;;;1.17;;
12469;SDS011;36499;46.484;13.832;2024-03-08T01:33:20;1.10;;;1.00;;
12469;SDS011;36499;46.484;13.832;2024-03-08T01:35:47;1.03;;;1.00;;
12469;SDS011;36499;46.484;13.832;2024-03-08T01:38:16;1.20;;;1.10;;
12469;SDS011;36499;46.484;13.832;2024-03-08T01:40:43;1.53;;;1.40;;
12469;SDS011;36499;46.484;13.832;2024-03-08T01:43:17;1.17;;;1.07;;
12469;SDS011;36499;46.484;13.832;2024-03-08T01:45:45;0.87;;;0.87;;
12469;SDS011;36499;46.484;13.832;2024-03-08T01:48:12;1.53;;;1.30;;
12469;SDS011;36499;46.484;13.832;2024-03-08T01:50:40;1.93;;;1.40;;
12469;SDS011;36499;46.484;13.832;2024-03-08T01:53:07;1.40;;;1.30;;
12469;SDS011;36499;46.484;13.832;2024-03-08T01:55:38;1.20;;;1.10;;
12469;SDS011;36499;46.484;13.832;2024-03-08T01:58:05;1.50;;;1.40;;
12469;SDS011;36499;46.484;13.832;2024-03-08T02:00:32;1.83;;;1.47;;
12469;SDS011;36499;46.484;13.832;2024-03-08T02:03:01;2.47;;;1.50;;
12469;SDS011;36499;46.484;13.832;2024-03-08T02:05:29;3.10;;;2.07;;
12469;SDS011;36499;46.484;13.832;2024-03-08T02:07:56;2.27;;;2.03;;
12469;SDS011;36499;46.484;13.832;2024-03-08T02:10:23;2.20;;;1.77;;
12469;SDS011;36499;46.484;13.832;2024-03-08T02:12:51;2.90;;;1.90;;
12469;SDS011;36499;46.484;13.832;2024-03-08T02:15:18;2.93;;;2.10;;
12469;SDS011;36499;46.484;13.832;2024-03-08T02:17:46;3.13;;;2.30;;
12469;SDS011;36499;46.484;13.832;2024-03-08T02:20:14;2.40;;;2.20;;
12469;SDS011;36499;46.484;13.832;2024-03-08T02:22:42;2.67;;;1.87;;
12469;SDS011;36499;46.484;13.832;2024-03-08T02:25:10;2.30;;;1.90;;
12469;SDS011;36499;46.484;13.832;2024-03-08T02:27:37;2.23;;;1.97;;
12469;SDS011;36499;46.484;13.832;2024-03-08T02:30:04;3.40;;;2.00;;
12469;SDS011;36499;46.484;13.832;2024-03-08T02:32:32;3.00;;;1.90;;
12469;SDS011;36499;46.484;13.832;2024-03-08T02:34:59;2.10;;;1.70;;
12469;SDS011;36499;46.484;13.832;2024-03-08T02:37:26;2.10;;;1.77;;
12469;SDS011;36499;46.484;13.832;2024-03-08T02:39:55;2.20;;;1.83;;
12469;SDS011;36499;46.484;13.832;2024-03-08T02:42:22;2.00;;;1.70;;
12469;SDS011;36499;46.484;13.832;2024-03-08T02:44:49;2.67;;;1.90;;
12469;SDS011;36499;46.484;13.832;2024-03-08T02:47:16;2.40;;;1.60;;
12469;SDS011;36499;46.484;13.832;2024-03-08T02:49:43;1.60;;;1.50;;
12469;SDS011;36499;46.484;13.832;2024-03-08T02:52:10;1.73;;;1.60;;
12469;SDS011;36499;46.484;13.832;2024-03-08T02:54:37;1.50;;;1.40;;
12469;SDS011;36499;46.484;13.832;2024-03-08T02:57:05;2.07;;;1.83;;
12469;SDS011;36499;46.484;13.832;2024-03-08T02:59:33;1.60;;;1.40;;
12469;SDS011;36499;46.484;13.832;2024-03-08T03:02:00;2.07;;;1.70;;
12469;SDS011;36499;46.484;13.832;2024-03-08T03:04:27;1.93;;;1.67;;
12469;SDS011;36499;46.484;13.832;2024-03-08T03:06:54;3.10;;;1.87;;
12469;SDS011;36499;46.484;13.832;2024-03-08T03:09:21;2.40;;;1.70;;
12469;SDS011;36499;46.484;13.832;2024-03-08T03:11:52;2.67;;;1.80;;
12469;SDS011;36499;46.484;13.832;2024-03-08T03:14:21;2.60;;;2.00;;
12469;SDS011;36499;46.484;13.832;2024-03-08T03:16:48;2.13;;;1.93;;
12469;SDS011;36499;46.484;13.832;2024-03-08T03:19:15;2.93;;;2.40;;
12469;SDS011;36499;46.484;13.832;2024-03-08T03:21:42;2.57;;;2.03;;
12469;SDS011;36499;46.484;13.832;2024-03-08T03:24:09;2.60;;;2.17;;
12469;SDS011;36499;46.484;13.832;2024-03-08T03:26:37;4.23;;;2.80;;
12469;SDS011;36499;46.484;13.832;2024-03-08T03:29:06;3.77;;;2.50;;
12469;SDS011;36499;46.484;13.832;2024-03-08T03:31:35;2.80;;;2.33;;
12469;SDS011;36499;46.484;13.832;2024-03-08T03:34:02;4.00;;;2.70;;
12469;SDS011;36499;46.484;13.832;2024-03-08T03:36:30;3.20;;;2.70;;
12469;SDS011;36499;46.484;13.832;2024-03-08T03:38:57;2.77;;;2.20;;
12469;SDS011;36499;46.484;13.832;2024-03-08T03:41:35;3.07;;;2.40;;
12469;SDS011;36499;46.484;13.832;2024-03-08T03:44:02;2.73;;;2.30;;
12469;SDS011;36499;46.484;13.832;2024-03-08T03:46:29;4.53;;;3.07;;
12469;SDS011;36499;46.484;13.832;2024-03-08T03:48:57;2.70;;;2.50;;
12469;SDS011;36499;46.484;13.832;2024-03-08T03:51:24;3.77;;;2.80;;
12469;SDS011;36499;46.484;13.832;2024-03-08T03:53:51;2.90;;;2.60;;
12469;SDS011;36499;46.484;13.832;2024-03-08T03:56:19;3.13;;;2.40;;
12469;SDS011;36499;46.484;13.832;2024-03-08T03:58:46;2.53;;;2.33;;
12469;SDS011;36499;46.484;13.832;2024-03-08T04:01:13;2.90;;;2.47;;
12469;SDS011;36499;46.484;13.832;2024-03-08T04:03:40;4.50;;;2.33;;
12469;SDS011;36499;46.484;13.832;2024-03-08T04:06:10;3.00;;;2.30;;
12469;SDS011;36499;46.484;13.832;2024-03-08T04:08:36;2.33;;;2.13;;
12469;SDS011;36499;46.484;13.832;2024-03-08T04:11:03;2.40;;;2.10;;
12469;SDS011;36499;46.484;13.832;2024-03-08T04:13:30;2.97;;;2.33;;
12469;SDS011;36499;46.484;13.832;2024-03-08T04:15:58;3.17;;;2.33;;
12469;SDS011;36499;46.484;13.832;2024-03-08T04:18:25;2.53;;;2.30;;
12469;SDS011;36499;46.484;13.832;2024-03-08T04:20:51;3.07;;;2.43;;
12469;SDS011;36499;46.484;13.832;2024-03-08T04:23:20;3.40;;;2.20;;
12469;SDS011;36499;46.484;13.832;2024-03-08T04:25:47;4.30;;;2.90;;
12469;SDS011;36499;46.484;13.832;2024-03-08T04:28:13;2.63;;;2.40;;
12469;SDS011;36499;46.484;13.832;2024-03-08T04:30:42;2.80;;;2.50;;
12469;SDS011;36499;46.484;13.832;2024-03-08T04:33:09;2.90;;;2.40;;
12469;SDS011;36499;46.484;13.832;2024-03-08T04:35:35;3.37;;;2.73;;
12469;SDS011;36499;46.484;13.832;2024-03-08T04:38:02;5.47;;;2.90;;
12469;SDS011;36499;46.484;13.832;2024-03-08T04:40:32;5.37;;;2.67;;
12469;SDS011;36499;46.484;13.832;2024-03-08T04:42:59;3.43;;;2.70;;
12469;SDS011;36499;46.484;13.832;2024-03-08T04:45:26;2.63;;;2.30;;
12469;SDS011;36499;46.484;13.832;2024-03-08T04:47:53;4.03;;;2.50;;
12469;SDS011;36499;46.484;13.832;2024-03-08T04:50:20;2.60;;;2.40;;
12469;SDS011;36499;46.484;13.832;2024-03-08T04:52:46;3.97;;;2.70;;
12469;SDS011;36499;46.484;13.832;2024-03-08T04:55:13;2.60;;;2.40;;
12469;SDS011;36499;46.484;13.832;2024-03-08T04:57:42;3.50;;;2.53;;
12469;SDS011;36499;46.484;13.832;2024-03-08T05:00:09;3.60;;;2.77;;
12469;SDS011;36499;46.484;13.832;2024-03-08T05:02:37;5.20;;;2.73;;
12469;SDS011;36499;46.484;13.832;2024-03-08T05:05:04;2.80;;;2.60;;
12469;SDS011;36499;46.484;13.832;2024-03-08T05:07:32;3.67;;;2.83;;
12469;SDS011;36499;46.484;13.832;2024-03-08T05:10:00;3.90;;;2.90;;
12469;SDS011;36499;46.484;13.832;2024-03-08T05:12:27;3.33;;;2.80;;
12469;SDS011;36499;46.484;13.832;2024-03-08T05:14:55;3.33;;;2.80;;
12469;SDS011;36499;46.484;13.832;2024-03-08T05:17:22;3.60;;;3.10;;
12469;SDS011;36499;46.484;13.832;2024-03-08T05:19:49;3.60;;;3.13;;
12469;SDS011;36499;46.484;13.832;2024-03-08T05:22:16;4.47;;;3.30;;
12469;SDS011;36499;46.484;13.832;2024-03-08T05:24:44;3.97;;;3.37;;
12469;SDS011;36499;46.484;13.832;2024-03-08T05:27:11;4.50;;;3.50;;
12469;SDS011;36499;46.484;13.832;2024-03-08T05:29:38;4.30;;;3.00;;
12469;SDS011;36499;46.484;13.832;2024-03-08T05:32:06;3.50;;;3.00;;
12469;SDS011;36499;46.484;13.832;2024-03-08T05:34:34;3.97;;;3.37;;
12469;SDS011;36499;46.484;13.832;2024-03-08T05:37:01;3.47;;;3.00;;
12469;SDS011;36499;46.484;13.832;2024-03-08T05:39:28;4.77;;;3.50;;
12469;SDS011;36499;46.484;13.832;2024-03-08T05:41:55;5.43;;;3.77;;
12469;SDS011;36499;46.484;13.832;2024-03-08T05:44:22;4.60;;;3.30;;
12469;SDS011;36499;46.484;13.832;2024-03-08T05:46:49;4.70;;;3.60;;
12469;SDS011;36499;46.484;13.832;2024-03-08T05:49:17;4.90;;;3.93;;
12469;SDS011;36499;46.484;13.832;2024-03-08T05:51:44;5.97;;;4.40;;
12469;SDS011;36499;46.484;13.832;2024-03-08T05:54:12;5.47;;;3.87;;
12469;SDS011;36499;46.484;13.832;2024-03-08T05:56:40;5.07;;;4.10;;
12469;SDS011;36499;46.484;13.832;2024-03-08T05:59:09;5.90;;;3.93;;
12469;SDS011;36499;46.484;13.832;2024-03-08T06:01:36;6.77;;;4.60;;
12469;SDS011;36499;46.484;13.832;2024-03-08T06:04:03;5.20;;;4.10;;
12469;SDS011;36499;46.484;13.832;2024-03-08T06:06:31;5.47;;;4.47;;
12469;SDS011;36499;46.484;13.832;2024-03-08T06:08:58;5.13;;;4.60;;
12469;SDS011;36499;46.484;13.832;2024-03-08T06:11:25;5.80;;;4.57;;
12469;SDS011;36499;46.484;13.832;2024-03-08T06:13:53;6.40;;;4.60;;
12469;SDS011;36499;46.484;13.832;2024-03-08T06:16:25;6.23;;;4.87;;
12469;SDS011;36499;46.484;13.832;2024-03-08T06:18:54;8.13;;;5.47;;
12469;SDS011;36499;46.484;13.832;2024-03-08T06:21:22;6.90;;;5.23;;
12469;SDS011;36499;46.484;13.832;2024-03-08T06:23:52;8.20;;;6.17;;
12469;SDS011;36499;46.484;13.832;2024-03-08T06:26:22;8.40;;;6.23;;
12469;SDS011;36499;46.484;13.832;2024-03-08T06:28:49;9.90;;;6.50;;
12469;SDS011;36499;46.484;13.832;2024-03-08T06:31:17;8.57;;;6.37;;
12469;SDS011;36499;46.484;13.832;2024-03-08T06:33:45;8.17;;;6.50;;
12469;SDS011;36499;46.484;13.832;2024-03-08T06:36:11;9.13;;;6.63;;
12469;SDS011;36499;46.484;13.832;2024-03-08T06:38:39;9.77;;;7.53;;
12469;SDS011;36499;46.484;13.832;2024-03-08T06:41:09;9.33;;;7.43;;
12469;SDS011;36499;46.484;13.832;2024-03-08T06:43:40;10.90;;;8.03;;
12469;SDS011;36499;46.484;13.832;2024-03-08T06:46:07;12.77;;;8.60;;
12469;SDS011;36499;46.484;13.832;2024-03-08T06:48:35;12.07;;;8.03;;
12469;SDS011;36499;46.484;13.832;2024-03-08T06:51:02;10.60;;;7.60;;
12469;SDS011;36499;46.484;13.832;2024-03-08T06:53:30;11.63;;;8.00;;
12469;SDS011;36499;46.484;13.832;2024-03-08T06:55:57;10.70;;;7.90;;
12469;SDS011;36499;46.484;13.832;2024-03-08T06:58:25;10.27;;;7.50;;
12469;SDS011;36499;46.484;13.832;2024-03-08T07:00:52;9.33;;;7.47;;
12469;SDS011;36499;46.484;13.832;2024-03-08T07:03:23;9.90;;;7.17;;
12469;SDS011;36499;46.484;13.832;2024-03-08T07:05:51;11.50;;;7.97;;
12469;SDS011;36499;46.484;13.832;2024-03-08T07:08:19;9.80;;;7.43;;
12469;SDS011;36499;46.484;13.832;2024-03-08T07:10:47;9.83;;;7.23;;
12469;SDS011;36499;46.484;13.832;2024-03-08T07:13:14;10.67;;;8.00;;
12469;SDS011;36499;46.484;13.832;2024-03-08T07:15:43;12.60;;;8.90;;
12469;SDS011;36499;46.484;13.832;2024-03-08T07:18:11;13.57;;;8.50;;
12469;SDS011;36499;46.484;13.832;2024-03-08T07:20:40;11.27;;;7.93;;
12469;SDS011;36499;46.484;13.832;2024-03-08T07:23:07;12.60;;;8.83;;
12469;SDS011;36499;46.484;13.832;2024-03-08T07:25:35;11.67;;;8.70;;
12469;SDS011;36499;46.484;13.832;2024-03-08T07:28:04;11.40;;;8.07;;
12469;SDS011;36499;46.484;13.832;2024-03-08T07:30:32;11.80;;;8.53;;
12469;SDS011;36499;46.484;13.832;2024-03-08T07:33:18;12.17;;;8.47;;
12469;SDS011;36499;46.484;13.832;2024-03-08T07:35:45;14.17;;;8.10;;
12469;SDS011;36499;46.484;13.832;2024-03-08T07:38:12;10.90;;;8.43;;
12469;SDS011;36499;46.484;13.832;2024-03-08T07:40:40;13.13;;;9.23;;
12469;SDS011;36499;46.484;13.832;2024-03-08T07:43:09;18.83;;;10.87;;
12469;SDS011;36499;46.484;13.832;2024-03-08T07:45:36;18.33;;;11.53;;
12469;SDS011;36499;46.484;13.832;2024-03-08T07:48:04;13.60;;;9.47;;
12469;SDS011;36499;46.484;13.832;2024-03-08T07:50:36;13.20;;;8.50;;
12469;SDS011;36499;46.484;13.832;2024-03-08T07:53:03;11.70;;;8.70;;
12469;SDS011;36499;46.484;13.832;2024-03-08T07:55:31;11.87;;;9.10;;
12469;SDS011;36499;46.484;13.832;2024-03-08T07:57:58;13.43;;;9.30;;
12469;SDS011;36499;46.484;13.832;2024-03-08T08:00:25;12.63;;;9.00;;
12469;SDS011;36499;46.484;13.832;2024-03-08T08:02:52;12.53;;;8.87;;
12469;SDS011;36499;46.484;13.832;2024-03-08T08:05:19;15.33;;;9.83;;
12469;SDS011;36499;46.484;13.832;2024-03-08T08:07:47;14.23;;;9.93;;
12469;SDS011;36499;46.484;13.832;2024-03-08T08:10:15;13.63;;;9.10;;
12469;SDS011;36499;46.484;13.832;2024-03-08T08:12:43;15.50;;;10.00;;
12469;SDS011;36499;46.484;13.832;2024-03-08T08:15:11;12.57;;;9.13;;
12469;SDS011;36499;46.484;13.832;2024-03-08T08:17:40;15.23;;;9.27;;
12469;SDS011;36499;46.484;13.832;2024-03-08T08:20:07;12.30;;;8.77;;
12469;SDS011;36499;46.484;13.832;2024-03-08T08:22:36;12.43;;;8.17;;
12469;SDS011;36499;46.484;13.832;2024-03-08T08:25:05;13.27;;;9.20;;
12469;SDS011;36499;46.484;13.832;2024-03-08T08:27:33;14.03;;;9.70;;
12469;SDS011;36499;46.484;13.832;2024-03-08T08:30:01;13.33;;;9.37;;
12469;SDS011;36499;46.484;13.832;2024-03-08T08:32:33;13.67;;;9.23;;
12469;SDS011;36499;46.484;13.832;2024-03-08T08:35:00;14.00;;;9.63;;
12469;SDS011;36499;46.484;13.832;2024-03-08T08:37:27;12.27;;;8.77;;
12469;SDS011;36499;46.484;13.832;2024-03-08T08:39:55;10.90;;;8.13;;
12469;SDS011;36499;46.484;13.832;2024-03-08T08:42:23;11.50;;;8.40;;
12469;SDS011;36499;46.484;13.832;2024-03-08T08:44:50;11.23;;;8.20;;
12469;SDS011;36499;46.484;13.832;2024-03-08T08:47:17;11.30;;;8.33;;
12469;SDS011;36499;46.484;13.832;2024-03-08T08:49:44;9.97;;;7.70;;
12469;SDS011;36499;46.484;13.832;2024-03-08T08:52:12;10.37;;;8.20;;
12469;SDS011;36499;46.484;13.832;2024-03-08T08:54:40;12.07;;;8.77;;
12469;SDS011;36499;46.484;13.832;2024-03-08T08:57:07;11.60;;;8.17;;
12469;SDS011;36499;46.484;13.832;2024-03-08T08:59:36;10.87;;;8.27;;
12469;SDS011;36499;46.484;13.832;2024-03-08T09:02:04;12.90;;;9.27;;
12469;SDS011;36499;46.484;13.832;2024-03-08T09:04:32;12.67;;;9.20;;
12469;SDS011;36499;46.484;13.832;2024-03-08T09:06:59;12.67;;;8.73;;
12469;SDS011;36499;46.484;13.832;2024-03-08T09:09:26;12.27;;;8.33;;
12469;SDS011;36499;46.484;13.832;2024-03-08T09:11:54;12.80;;;8.93;;
12469;SDS011;36499;46.484;13.832;2024-03-08T09:14:21;13.40;;;8.73;;
12469;SDS011;36499;46.484;13.832;2024-03-08T09:16:49;11.27;;;8.07;;
12469;SDS011;36499;46.484;13.832;2024-03-08T09:19:16;14.60;;;9.17;;
12469;SDS011;36499;46.484;13.832;2024-03-08T09:21:44;12.87;;;9.30;;
12469;SDS011;36499;46.484;13.832;2024-03-08T09:24:12;12.67;;;8.53;;
12469;SDS011;36499;46.484;13.832;2024-03-08T09:26:38;12.50;;;9.17;;
12469;SDS011;36499;46.484;13.832;2024-03-08T09:29:07;12.20;;;8.80;;
12469;SDS011;36499;46.484;13.832;2024-03-08T09:31:36;13.50;;;9.10;;
12469;SDS011;36499;46.484;13.832;2024-03-08T09:34:04;13.33;;;9.30;;
12469;SDS011;36499;46.484;13.832;2024-03-08T09:36:33;14.73;;;9.37;;
12469;SDS011;36499;46.484;13.832;2024-03-08T09:39:00;13.63;;;9.67;;
12469;SDS011;36499;46.484;13.832;2024-03-08T09:41:27;13.93;;;9.70;;
12469;SDS011;36499;46.484;13.832;2024-03-08T09:43:56;13.00;;;9.20;;
12469;SDS011;36499;46.484;13.832;2024-03-08T09:46:24;15.27;;;9.70;;
12469;SDS011;36499;46.484;13.832;2024-03-08T09:48:52;14.13;;;8.87;;
12469;SDS011;36499;46.484;13.832;2024-03-08T09:51:21;13.03;;;8.73;;
12469;SDS011;36499;46.484;13.832;2024-03-08T09:53:51;14.87;;;9.40;;
12469;SDS011;36499;46.484;13.832;2024-03-08T09:56:18;13.53;;;10.03;;
12469;SDS011;36499;46.484;13.832;2024-03-08T09:58:46;12.67;;;9.10;;
12469;SDS011;36499;46.484;13.832;2024-03-08T10:01:39;10.30;;;8.23;;
12469;SDS011;36499;46.484;13.832;2024-03-08T10:04:06;12.83;;;8.60;;
12469;SDS011;36499;46.484;13.832;2024-03-08T10:06:36;13.93;;;9.03;;
12469;SDS011;36499;46.484;13.832;2024-03-08T10:09:03;12.47;;;8.53;;
12469;SDS011;36499;46.484;13.832;2024-03-08T10:11:32;11.73;;;8.30;;
12469;SDS011;36499;46.484;13.832;2024-03-08T10:14:00;13.20;;;8.37;;
12469;SDS011;36499;46.484;13.832;2024-03-08T10:16:27;16.77;;;10.73;;
12469;SDS011;36499;46.484;13.832;2024-03-08T10:18:55;14.23;;;10.23;;
12469;SDS011;36499;46.484;13.832;2024-03-08T10:21:23;13.77;;;8.70;;
12469;SDS011;36499;46.484;13.832;2024-03-08T10:23:51;11.77;;;8.30;;
12469;SDS011;36499;46.484;13.832;2024-03-08T10:26:18;12.27;;;8.50;;
12469;SDS011;36499;46.484;13.832;2024-03-08T10:28:47;11.67;;;8.60;;
12469;SDS011;36499;46.484;13.832;2024-03-08T10:31:14;11.77;;;8.93;;
12469;SDS011;36499;46.484;13.832;2024-03-08T10:33:41;14.43;;;9.87;;
12469;SDS011;36499;46.484;13.832;2024-03-08T10:36:09;11.43;;;8.30;;
12469;SDS011;36499;46.484;13.832;2024-03-08T10:38:38;16.87;;;11.17;;
12469;SDS011;36499;46.484;13.832;2024-03-08T10:41:08;12.43;;;8.63;;
12469;SDS011;36499;46.484;13.832;2024-03-08T10:43:40;11.93;;;8.30;;
12469;SDS011;36499;46.484;13.832;2024-03-08T10:46:21;12.27;;;8.33;;
12469;SDS011;36499;46.484;13.832;2024-03-08T10:48:58;10.83;;;7.53;;
12469;SDS011;36499;46.484;13.832;2024-03-08T10:51:28;9.47;;;7.40;;
12469;SDS011;36499;46.484;13.832;2024-03-08T10:53:56;11.17;;;7.97;;
12469;SDS011;36499;46.484;13.832;2024-03-08T10:56:25;11.83;;;8.20;;
12469;SDS011;36499;46.484;13.832;2024-03-08T10:58:53;10.87;;;7.53;;
12469;SDS011;36499;46.484;13.832;2024-03-08T11:01:21;10.70;;;7.50;;
12469;SDS011;36499;46.484;13.832;2024-03-08T11:03:49;10.10;;;7.60;;
12469;SDS011;36499;46.484;13.832;2024-03-08T11:06:19;10.37;;;7.67;;
12469;SDS011;36499;46.484;13.832;2024-03-08T11:08:49;12.80;;;8.13;;
12469;SDS011;36499;46.484;13.832;2024-03-08T11:11:23;9.77;;;7.37;;
12469;SDS011;36499;46.484;13.832;2024-03-08T11:13:59;10.00;;;7.57;;
12469;SDS011;36499;46.484;13.832;2024-03-08T11:16:37;9.70;;;7.30;;
12469;SDS011;36499;46.484;13.832;2024-03-08T11:19:23;10.33;;;7.77;;
12469;SDS011;36499;46.484;13.832;2024-03-08T11:21:59;10.70;;;7.07;;
12469;SDS011;36499;46.484;13.832;2024-03-08T11:24:26;12.17;;;7.33;;
12469;SDS011;36499;46.484;13.832;2024-03-08T11:26:58;10.27;;;7.83;;
12469;SDS011;36499;46.484;13.832;2024-03-08T11:29:38;9.57;;;7.70;;
12469;SDS011;36499;46.484;13.832;2024-03-08T11:32:08;9.97;;;7.40;;
12469;SDS011;36499;46.484;13.832;2024-03-08T11:34:37;12.20;;;7.67;;
12469;SDS011;36499;46.484;13.832;2024-03-08T11:37:06;11.33;;;7.77;;
12469;SDS011;36499;46.484;13.832;2024-03-08T11:39:38;10.37;;;7.70;;
12469;SDS011;36499;46.484;13.832;2024-03-08T11:42:07;9.97;;;7.67;;
12469;SDS011;36499;46.484;13.832;2024-03-08T11:44:36;11.10;;;8.10;;
12469;SDS011;36499;46.484;13.832;2024-03-08T11:47:07;11.70;;;7.80;;
12469;SDS011;36499;46.484;13.832;2024-03-08T11:49:35;10.00;;;7.20;;
12469;SDS011;36499;46.484;13.832;2024-03-08T11:52:02;9.97;;;7.70;;
12469;SDS011;36499;46.484;13.832;2024-03-08T11:54:30;11.77;;;8.70;;
12469;SDS011;36499;46.484;13.832;2024-03-08T11:56:57;10.87;;;8.13;;
12469;SDS011;36499;46.484;13.832;2024-03-08T11:59:28;10.97;;;7.70;;
12469;SDS011;36499;46.484;13.832;2024-03-08T12:01:59;10.13;;;8.03;;
12469;SDS011;36499;46.484;13.832;2024-03-08T12:04:28;11.30;;;7.97;;
12469;SDS011;36499;46.484;13.832;2024-03-08T12:06:56;10.63;;;7.57;;
12469;SDS011;36499;46.484;13.832;2024-03-08T12:09:26;11.73;;;8.07;;
12469;SDS011;36499;46.484;13.832;2024-03-08T12:11:52;11.00;;;7.77;;
12469;SDS011;36499;46.484;13.832;2024-03-08T12:14:19;11.07;;;8.17;;
12469;SDS011;36499;46.484;13.832;2024-03-08T12:16:49;10.67;;;7.83;;
12469;SDS011;36499;46.484;13.832;2024-03-08T12:19:17;10.20;;;8.13;;
12469;SDS011;36499;46.484;13.832;2024-03-08T12:21:44;9.67;;;7.03;;
12469;SDS011;36499;46.484;13.832;2024-03-08T12:24:14;11.97;;;7.77;;
12469;SDS011;36499;46.484;13.832;2024-03-08T12:26:44;9.83;;;7.40;;
12469;SDS011;36499;46.484;13.832;2024-03-08T12:29:20;9.60;;;7.27;;
12469;SDS011;36499;46.484;13.832;2024-03-08T12:31:51;10.07;;;7.83;;
12469;SDS011;36499;46.484;13.832;2024-03-08T12:34:19;9.63;;;7.90;;
12469;SDS011;36499;46.484;13.832;2024-03-08T12:36:46;10.47;;;7.73;;
12469;SDS011;36499;46.484;13.832;2024-03-08T12:39:15;9.47;;;7.90;;
12469;SDS011;36499;46.484;13.832;2024-03-08T12:41:43;12.27;;;8.77;;
12469;SDS011;36499;46.484;13.832;2024-03-08T12:44:12;10.23;;;7.73;;
12469;SDS011;36499;46.484;13.832;2024-03-08T12:46:38;10.63;;;8.30;;
12469;SDS011;36499;46.484;13.832;2024-03-08T12:49:10;9.93;;;7.43;;
12469;SDS011;36499;46.484;13.832;2024-03-08T12:51:37;9.40;;;7.27;;
12469;SDS011;36499;46.484;13.832;2024-03-08T12:54:05;11.10;;;7.97;;
12469;SDS011;36499;46.484;13.832;2024-03-08T12:56:34;9.33;;;6.83;;
12469;SDS011;36499;46.484;13.832;2024-03-08T12:59:02;9.60;;;7.40;;
12469;SDS011;36499;46.484;13.832;2024-03-08T13:01:30;11.60;;;7.47;;
12469;SDS011;36499;46.484;13.832;2024-03-08T13:03:58;9.37;;;7.50;;
12469;SDS011;36499;46.484;13.832;2024-03-08T13:06:27;11.57;;;7.57;;
12469;SDS011;36499;46.484;13.832;2024-03-08T13:08:54;10.97;;;7.80;;
12469;SDS011;36499;46.484;13.832;2024-03-08T13:11:21;17.90;;;12.60;;
12469;SDS011;36499;46.484;13.832;2024-03-08T13:13:49;10.43;;;7.43;;
12469;SDS011;36499;46.484;13.832;2024-03-08T13:16:16;11.13;;;7.57;;
12469;SDS011;36499;46.484;13.832;2024-03-08T13:18:44;11.17;;;7.93;;
12469;SDS011;36499;46.484;13.832;2024-03-08T13:21:13;10.10;;;6.83;;
12469;SDS011;36499;46.484;13.832;2024-03-08T13:23:46;8.87;;;6.90;;
12469;SDS011;36499;46.484;13.832;2024-03-08T13:26:14;9.70;;;7.20;;
12469;SDS011;36499;46.484;13.832;2024-03-08T13:28:42;8.83;;;7.03;;
12469;SDS011;36499;46.484;13.832;2024-03-08T13:31:09;11.30;;;8.73;;
12469;SDS011;36499;46.484;13.832;2024-03-08T13:33:36;10.53;;;7.40;;
12469;SDS011;36499;46.484;13.832;2024-03-08T13:36:05;9.97;;;7.40;;
12469;SDS011;36499;46.484;13.832;2024-03-08T13:38:39;9.50;;;7.00;;
12469;SDS011;36499;46.484;13.832;2024-03-08T13:41:09;11.13;;;7.63;;
12469;SDS011;36499;46.484;13.832;2024-03-08T13:43:39;9.23;;;6.93;;
12469;SDS011;36499;46.484;13.832;2024-03-08T13:46:06;10.77;;;9.00;;
12469;SDS011;36499;46.484;13.832;2024-03-08T13:48:35;10.00;;;7.90;;
12469;SDS011;36499;46.484;13.832;2024-03-08T13:51:02;9.70;;;7.07;;
12469;SDS011;36499;46.484;13.832;2024-03-08T13:53:31;9.03;;;6.50;;
12469;SDS011;36499;46.484;13.832;2024-03-08T13:55:58;9.43;;;7.30;;
12469;SDS011;36499;46.484;13.832;2024-03-08T13:58:26;9.30;;;7.50;;
12469;SDS011;36499;46.484;13.832;2024-03-08T14:00:53;8.90;;;7.00;;
12469;SDS011;36499;46.484;13.832;2024-03-08T14:03:20;9.73;;;7.13;;
12469;SDS011;36499;46.484;13.832;2024-03-08T14:05:48;10.30;;;7.13;;
12469;SDS011;36499;46.484;13.832;2024-03-08T14:08:15;12.77;;;7.33;;
12469;SDS011;36499;46.484;13.832;2024-03-08T14:10:42;9.33;;;6.97;;
12469;SDS011;36499;46.484;13.832;2024-03-08T14:13:12;9.60;;;7.13;;
12469;SDS011;36499;46.484;13.832;2024-03-08T14:15:42;10.33;;;7.80;;
12469;SDS011;36499;46.484;13.832;2024-03-08T14:18:11;9.67;;;7.00;;
12469;SDS011;36499;46.484;13.832;2024-03-08T14:20:38;10.10;;;7.57;;
12469;SDS011;36499;46.484;13.832;2024-03-08T14:23:05;9.53;;;7.40;;
12469;SDS011;36499;46.484;13.832;2024-03-08T14:25:32;12.27;;;8.30;;
12469;SDS011;36499;46.484;13.832;2024-03-08T14:27:59;10.93;;;8.07;;
12469;SDS011;36499;46.484;13.832;2024-03-08T14:30:29;11.17;;;8.33;;
12469;SDS011;36499;46.484;13.832;2024-03-08T14:33:01;10.80;;;7.73;;
12469;SDS011;36499;46.484;13.832;2024-03-08T14:35:28;9.17;;;7.30;;